This is the latest recevied weather packets stored in our database for station/object TA1FM. If no packets are shown the sender has not sent any weather packets the latest 10 day(s).
| Time | Temp. | Humidity | Pressure | Rain* | Wind** | Luminosity | Snow |
|---|---|---|---|---|---|---|---|
| 1778043490 | 9.44° C | 60% | 911.8 hPa | - | - | - | - |
| 1778042590 | 8.89° C | 60% | 911.8 hPa | - | - | - | - |
| 1778041690 | 8.89° C | 60% | 911.7 hPa | - | - | - | - |
| 1778040790 | 8.33° C | 60% | 911.6 hPa | - | - | - | - |
| 1778039890 | 8.33° C | 60% | 911.5 hPa | - | - | - | - |
| 1778038990 | 7.78° C | 60% | 911.5 hPa | - | - | - | - |
| 1778038089 | 7.78° C | 60% | 911.4 hPa | - | - | - | - |
| 1778037189 | 7.22° C | 60% | 911.3 hPa | - | - | - | - |
| 1778036289 | 6.67° C | 62% | 911.3 hPa | - | - | - | - |
| 1778021269 | 8.33° C | 48% | 911.7 hPa | - | - | - | - |
| 1778020368 | 8.33° C | 49% | 911.9 hPa | - | - | - | - |
| 1778019468 | 7.22° C | 49% | 910.5 hPa | - | - | - | - |
| 1778018565 | 8.33° C | 49% | 911.9 hPa | - | - | - | - |
| 1778017665 | 8.33° C | 50% | 911.8 hPa | - | - | - | - |
| 1778016765 | 8.33° C | 50% | 911.9 hPa | - | - | - | - |
| 1778015865 | 8.33° C | 50% | 911.9 hPa | - | - | - | - |
| 1778015098 | 8.33° C | 50% | 911.9 hPa | - | - | - | - |
| 1778014965 | 8.33° C | 50% | 911.9 hPa | - | - | - | - |
| 1778014068 | 8.89° C | 50% | 911.9 hPa | - | - | - | - |
| 1778013161 | 8.89° C | 50% | 911.8 hPa | - | - | - | - |
| 1778012261 | 8.89° C | 50% | 911.8 hPa | - | - | - | - |
| 1778011361 | 1.11° C | 50% | 901 hPa | - | - | - | - |
| 1778010461 | 8.89° C | 49% | 911.8 hPa | - | - | - | - |
| 1778009561 | 8.89° C | 47% | 911.8 hPa | - | - | - | - |
| 1778008660 | -0.56° C | 47% | 897.6 hPa | - | - | - | - |
* Rain since midnight (hover to see other rain measurements)
** Current wind speed in m/s (hover to see current wind gust speed)